Luze — CURH9 — position and weather

sailwx.info

Track history (hours):
 
Tides and Currents Weather Stations Pressure Air Temp Water Temp Dewpoint Dewpoint Depression Visibility Wind Speed Wind Dir Waves Ship Positions

Luze

Last reported at 2017-Dec-11 17:00 UTC. Time now 2017-Dec-12 19:35 UTC.
Position N 37°57' W 008°52'.

Length 20 m.

Type: Fishing. MMSI: 263500360.

Date/timePositionNaut miles runAvg speedWind from/ knotsBaromVisibWave heightAir tempDewpointWater temp
2017-Dec-11 17:00N 37°57' W 008°52'0 0.0
2017-Dec-11 16:30N 37°57' W 008°52'0 0.0
2017-Dec-11 16:00N 37°57' W 008°52'0 0.0
2017-Dec-11 15:30N 37°57' W 008°52'0 0.0
2017-Dec-11 15:00N 37°57' W 008°52'0 0.0
2017-Dec-11 14:30N 37°57' W 008°52'0 0.0
2017-Dec-11 14:00N 37°57' W 008°52'0 0.0
2017-Dec-11 13:30N 37°57' W 008°52'0 0.0
2017-Dec-11 13:00N 37°57' W 008°52'0 0.0
2017-Dec-11 12:30N 37°57' W 008°52'0 0.0
2017-Dec-11 12:00N 37°57' W 008°52'0 0.0
2017-Dec-11 11:30N 37°57' W 008°52'0 0.0
2017-Dec-11 11:00N 37°57' W 008°52'0 0.0
2017-Dec-11 10:30N 37°57' W 008°52'0 0.0
2017-Dec-11 10:00N 37°57' W 008°52'0 0.0
2017-Dec-11 09:30N 37°57' W 008°52'0 0.0
2017-Dec-11 09:00N 37°57' W 008°52'0 0.1
2017-Dec-11 08:30N 37°57' W 008°52'0 0.2
2017-Dec-11 08:00N 37°57' W 008°52'0 0.0
2017-Dec-11 07:30N 37°57' W 008°52'0 0.0
2017-Dec-11 07:00N 37°57' W 008°52'0 0.0
2017-Dec-11 06:30N 37°57' W 008°52'0 0.0
2017-Dec-11 06:00N 37°57' W 008°52'0 0.0
2017-Dec-11 05:30N 37°57' W 008°52'0 0.0
2017-Dec-11 05:00N 37°57' W 008°52'0 0.0
2017-Dec-11 04:30N 37°57' W 008°52'0 0.0
2017-Dec-11 04:00N 37°57' W 008°52'0 0.0
2017-Dec-11 03:30N 37°57' W 008°52'0 0.0
2017-Dec-11 03:00N 37°57' W 008°52'0 0.0
2017-Dec-11 02:30N 37°57' W 008°52'0 0.0
2017-Dec-11 02:00N 37°57' W 008°52'0 0.0
2017-Dec-11 01:30N 37°57' W 008°52'0 0.0
2017-Dec-11 01:00N 37°57' W 008°52'0 0.0
2017-Dec-11 00:30N 37°57' W 008°52'0 0.0
2017-Dec-11 00:00N 37°57' W 008°52'0 0.0
2017-Dec-10 23:30N 37°57' W 008°52'0 0.0
2017-Dec-10 23:00N 37°57' W 008°52'0 0.0
2017-Dec-10 22:30N 37°57' W 008°52'0 0.0
2017-Dec-10 22:00N 37°57' W 008°52'0 0.0
2017-Dec-10 21:30N 37°57' W 008°52'0 0.1
2017-Dec-10 21:00N 37°57' W 008°52'2 4.9
2017-Dec-10 20:30N 37°57' W 008°55'3 7.0
2017-Dec-10 20:00N 37°60' W 008°58'4 7.0
2017-Dec-10 19:30N 38°02' W 009°00'4 7.0
2017-Dec-10 19:00N 38°05' W 009°03'4 7.2
2017-Dec-10 18:30N 38°08' W 009°06'4 7.0
2017-Dec-10 18:00N 38°11' W 009°09'1 1.3
2017-Dec-10 17:30N 38°11' W 009°10'1 1.1
2017-Dec-10 17:00N 38°11' W 009°10'0 0.4
2017-Dec-10 16:30N 38°11' W 009°10'0 0.4
2017-Dec-10 16:00N 38°11' W 009°10'0 0.9
2017-Dec-10 15:30N 38°11' W 009°10'1 1.2
2017-Dec-10 15:00N 38°10' W 009°10'0 0.9
2017-Dec-10 14:30N 38°10' W 009°10'2 3.1
2017-Dec-10 14:00N 38°10' W 009°08'3 7.0
2017-Dec-10 13:30N 38°09' W 009°03'3 6.9
2017-Dec-10 13:00N 38°08' W 008°59'1 1.5
2017-Dec-10 12:30N 38°08' W 009°00'4 7.4
2017-Dec-10 12:00N 38°05' W 008°58'4 7.4
2017-Dec-10 11:30N 38°01' W 008°57'4 7.5
2017-Dec-10 11:00N 37°57' W 008°56'4 7.1
2017-Dec-10 10:30N 37°54' W 008°56'1 1.8
2017-Dec-10 10:00N 37°53' W 008°56'1 1.3
2017-Dec-10 09:30N 37°53' W 008°57'1 1.2
2017-Dec-10 09:00N 37°52' W 008°57'1 2.3
2017-Dec-10 08:30N 37°52' W 008°59'0 0.7
2017-Dec-10 08:00N 37°52' W 008°59'1 1.5
2017-Dec-10 07:30N 37°53' W 008°58'1 1.5
2017-Dec-10 07:00N 37°53' W 008°57'1 1.2
2017-Dec-10 06:30N 37°54' W 008°57'2 4.8
2017-Dec-10 06:00N 37°55' W 009°00'0 0.5
2017-Dec-10 05:30N 37°55' W 009°00'0 0.4
2017-Dec-10 05:01N 37°55' W 009°01'0 0.4
2017-Dec-10 04:30N 37°55' W 009°01'0 0.4
2017-Dec-10 04:00N 37°55' W 009°01'0 0.3
2017-Dec-10 03:31N 37°55' W 009°01'0 0.3
2017-Dec-10 03:01N 37°55' W 009°02'0 0.3
2017-Dec-10 02:31N 37°55' W 009°02'0 0.6
2017-Dec-10 02:01N 37°55' W 009°02'4 7.7
2017-Dec-10 01:31N 37°59' W 009°03'4 7.9
2017-Dec-10 01:01N 38°02' W 009°03'4 8.0
2017-Dec-10 00:31N 38°06' W 009°04'3 6.2
2017-Dec-10 00:01N 38°09' W 009°05'2 3.6
2017-Dec-09 23:31N 38°10' W 009°07'2 4.8
2017-Dec-09 23:00N 38°11' W 009°10'1 1.4
2017-Dec-09 22:31N 38°10' W 009°09'1 1.2
2017-Dec-09 22:01N 38°10' W 009°10'0 0.9
2017-Dec-09 21:30N 38°10' W 009°10'1 1.2
2017-Dec-09 21:01N 38°11' W 009°10'0 0.7
2017-Dec-09 20:31N 38°11' W 009°10'0 0.6
2017-Dec-09 20:00N 38°11' W 009°10'0 0.6
2017-Dec-09 19:31N 38°11' W 009°10'0 0.7
2017-Dec-09 19:00N 38°11' W 009°10'0 0.5
2017-Dec-09 18:31N 38°10' W 009°09'1 2.1
2017-Dec-09 18:01N 38°10' W 009°09'4 7.0
2017-Dec-09 17:30N 38°07' W 009°06'3 6.5
2017-Dec-09 17:01N 38°04' W 009°04'2 3.8
2017-Dec-09 16:31N 38°02' W 009°03'0 0.4
2017-Dec-09 16:01N 38°02' W 009°03'0 0.7
2017-Dec-09 15:31N 38°03' W 009°03'0 0.5
2017-Dec-09 15:00N 38°03' W 009°03'0 0.5
2017-Dec-09 14:30N 38°03' W 009°03'0 0.7
2017-Dec-09 14:01N 38°03' W 009°03'0 0.6
2017-Dec-09 13:31N 38°04' W 009°03'0 0.8
2017-Dec-09 13:01N 38°04' W 009°03'0 0.9
2017-Dec-09 12:31N 38°04' W 009°03'0 0.7
2017-Dec-09 12:01N 38°04' W 009°03'3 5.8
2017-Dec-09 11:31N 38°07' W 009°04'1 1.7
2017-Dec-09 11:01N 38°06' W 009°04'1 2.0
2017-Dec-09 10:31N 38°06' W 009°03'1 1.3
2017-Dec-09 10:01N 38°05' W 009°03'0 0.9
2017-Dec-09 09:31N 38°05' W 009°03'3 5.8
2017-Dec-09 09:01N 38°08' W 009°03'0 0.9
2017-Dec-09 08:31N 38°08' W 009°03'1 2.1
2017-Dec-09 08:00N 38°07' W 009°03'1 1.5
2017-Dec-09 07:31N 38°06' W 009°02'1 1.3
2017-Dec-09 07:01N 38°05' W 009°03'1 1.9
2017-Dec-09 06:31N 38°04' W 009°02'2 4.9
2017-Dec-09 06:01N 38°04' W 008°59'0 0.6
2017-Dec-09 05:31N 38°04' W 008°60'0 0.6
2017-Dec-09 05:01N 38°04' W 009°00'0 0.6
2017-Dec-09 04:31N 38°04' W 009°00'0 0.7
2017-Dec-09 04:01N 38°04' W 009°01'0 0.7
2017-Dec-09 03:31N 38°05' W 009°01'0 0.7
2017-Dec-09 03:01N 38°05' W 009°01'0 0.6
2017-Dec-09 02:31N 38°05' W 009°02'0 0.5
2017-Dec-09 02:00N 38°05' W 009°02'1 1.4
2017-Dec-09 01:31N 38°06' W 009°03'2 4.2
2017-Dec-09 01:00N 38°07' W 009°05'2 4.1
2017-Dec-09 00:31N 38°09' W 009°06'2 3.7
2017-Dec-09 00:01N 38°10' W 009°08'2 4.0
2017-Dec-08 23:30N 38°11' W 009°10'1 2.0
2017-Dec-08 23:01N 38°10' W 009°10'0 0.3
2017-Dec-08 22:31N 38°10' W 009°10'0 0.8
2017-Dec-08 22:01N 38°10' W 009°10'1 1.0
2017-Dec-08 21:31N 38°11' W 009°10'0 0.8
2017-Dec-08 21:01N 38°11' W 009°10'0 0.3
2017-Dec-08 20:31N 38°11' W 009°10'0 0.6
2017-Dec-08 20:01N 38°11' W 009°10'0 0.5
2017-Dec-08 19:31N 38°11' W 009°10'0 0.8
2017-Dec-08 19:01N 38°10' W 009°10'0 0.4
2017-Dec-08 18:31N 38°10' W 009°10'0 0.5
2017-Dec-08 18:01N 38°10' W 009°10'3 5.9
2017-Dec-08 17:31N 38°10' W 009°06'2 4.9
2017-Dec-08 17:01N 38°07' W 009°04'0 0.8
2017-Dec-08 16:31N 38°08' W 009°05'1 1.5
2017-Dec-08 16:01N 38°07' W 009°04'1 2.9
2017-Dec-08 15:30N 38°08' W 009°05'1 1.5
2017-Dec-08 15:01N 38°09' W 009°05'0 0.3
2017-Dec-08 14:31N 38°09' W 009°05'3 5.6
2017-Dec-08 14:01N 38°12' W 009°05'4 7.4
2017-Dec-08 13:31N 38°09' W 009°02'1 1.5
2017-Dec-08 13:01N 38°08' W 009°02'1 1.7
2017-Dec-08 12:30N 38°07' W 009°03'1 1.9
2017-Dec-08 12:01N 38°07' W 009°03'3 5.0
2017-Dec-08 11:31N 38°09' W 009°05'1 1.0
2017-Dec-08 11:01N 38°08' W 009°05'1 1.3
2017-Dec-08 10:31N 38°08' W 009°04'1 1.4
2017-Dec-08 10:00N 38°07' W 009°04'1 1.5
2017-Dec-08 09:31N 38°06' W 009°03'2 3.6
2017-Dec-08 09:01N 38°08' W 009°04'0 0.4
2017-Dec-08 08:31N 38°08' W 009°04'1 2.1
2017-Dec-08 08:01N 38°07' W 009°03'1 1.9
2017-Dec-08 07:30N 38°06' W 009°03'2 3.2
2017-Dec-08 07:01N 38°05' W 009°02'0 0.2
2017-Dec-08 06:31N 38°05' W 009°02'0 0.2
2017-Dec-08 06:00N 38°05' W 009°02'0 0.2
2017-Dec-08 05:31N 38°05' W 009°02'0 0.3
2017-Dec-08 05:01N 38°05' W 009°02'0 0.2
2017-Dec-08 04:31N 38°05' W 009°02'0 0.2
2017-Dec-08 04:01N 38°05' W 009°02'0 0.2
2017-Dec-08 03:31N 38°05' W 009°02'0 0.2
2017-Dec-08 03:01N 38°06' W 009°02'1 2.5
2017-Dec-08 02:31N 38°06' W 009°03'2 4.9
2017-Dec-08 02:01N 38°08' W 009°06'2 4.8
2017-Dec-08 01:31N 38°09' W 009°08'2 4.3
2017-Dec-08 01:01N 38°11' W 009°10'1 2.3
2017-Dec-08 00:30N 38°10' W 009°09'1 1.1
2017-Dec-08 00:01N 38°10' W 009°10'0 0.1
2017-Dec-07 23:31N 38°10' W 009°10'1 1.0
2017-Dec-07 23:01N 38°10' W 009°10'0 1.0
2017-Dec-07 22:31N 38°11' W 009°10'0 0.3
2017-Dec-07 22:00N 38°11' W 009°10'1 1.1
2017-Dec-07 21:31N 38°10' W 009°10'0 0.3
2017-Dec-07 21:00N 38°11' W 009°10'0 0.8
2017-Dec-07 20:31N 38°11' W 009°10'0 0.4
2017-Dec-07 20:01N 38°11' W 009°10'0 0.6
2017-Dec-07 19:31N 38°11' W 009°10'0 0.3
2017-Dec-07 19:01N 38°11' W 009°10'2 4.4
2017-Dec-07 18:31N 38°09' W 009°08'4 8.2
2017-Dec-07 18:00N 38°05' W 009°05'4 8.0
2017-Dec-07 17:31N 38°02' W 009°02'4 7.8
2017-Dec-07 17:01N 37°59' W 008°59'2 3.9
2017-Dec-07 16:31N 37°58' W 008°57'1 1.5
2017-Dec-07 16:01N 37°57' W 008°57'1 1.8
2017-Dec-07 15:30N 37°56' W 008°57'1 1.4
2017-Dec-07 15:01N 37°56' W 008°56'1 1.5
2017-Dec-07 14:31N 37°55' W 008°56'3 5.4
2017-Dec-07 14:01N 37°56' W 008°53'1 2.1
2017-Dec-07 13:31N 37°57' W 008°52'0 0.0
2017-Dec-07 13:01N 37°57' W 008°52'0 0.0
2017-Dec-07 12:31N 37°57' W 008°52'0 0.0
2017-Dec-07 12:01N 37°57' W 008°52'0 0.0
2017-Dec-07 11:31N 37°57' W 008°52'0 0.1
2017-Dec-07 11:01N 37°57' W 008°52'0 0.0
2017-Dec-07 10:31N 37°57' W 008°52'0 0.0
2017-Dec-07 10:01N 37°57' W 008°52'0 0.0
2017-Dec-07 09:30N 37°57' W 008°52'0 0.0
2017-Dec-07 09:00N 37°57' W 008°52'0 0.0
2017-Dec-07 08:31N 37°57' W 008°52'0 0.2
2017-Dec-07 08:00N 37°57' W 008°52'0 0.0
2017-Dec-07 07:31N 37°57' W 008°52'0 0.0
2017-Dec-07 07:00N 37°57' W 008°52'0 0.0
2017-Dec-07 06:30N 37°57' W 008°52'0 0.0
2017-Dec-07 06:01N 37°57' W 008°52'0 0.0
2017-Dec-07 05:31N 37°57' W 008°52'0 0.0
2017-Dec-07 05:01N 37°57' W 008°52'1 2.2
2017-Dec-07 04:31N 37°56' W 008°53'3 5.3
2017-Dec-07 04:01N 37°56' W 008°56'3 5.8
2017-Dec-07 03:31N 37°58' W 008°58'2 4.0
2017-Dec-07 03:01N 38°00' W 008°59'2 3.6
2017-Dec-07 02:30N 38°02' W 009°00'2 3.5
2017-Dec-07 02:01N 38°03' W 009°02'2 3.9
2017-Dec-07 01:30N 38°04' W 009°03'2 4.0
2017-Dec-07 01:00N 38°06' W 009°05'3 5.4
2017-Dec-07 00:31N 38°08' W 009°07'3 6.7
2017-Dec-07 00:01N 38°11' W 009°09'1 2.5
2017-Dec-06 23:31N 38°10' W 009°10'1 1.1
2017-Dec-06 23:01N 38°10' W 009°10'0 0.1
2017-Dec-06 22:31N 38°10' W 009°10'0 0.9
2017-Dec-06 22:01N 38°11' W 009°11'0 0.6
2017-Dec-06 21:30N 38°11' W 009°11'0 0.6
2017-Dec-06 21:01N 38°11' W 009°11'  
Track history (hours):
 
Tides and Currents Weather Stations Pressure Air Temp Water Temp Dewpoint Dewpoint Depression Visibility Wind Speed Wind Dir Waves Ship Positions

Luze

Last reported at 2017-Dec-11 17:00 UTC. Time now 2017-Dec-12 19:35 UTC.
Position N 37°57' W 008°52'.

Length 20 m.

Type: Fishing. MMSI: 263500360.

Date/timePositionNaut miles runAvg speedWind from/ knotsBaromVisibWave heightAir tempDewpointWater temp
2017-Dec-11 17:00N 37°57' W 008°52'0 0.0
2017-Dec-11 16:30N 37°57' W 008°52'0 0.0
2017-Dec-11 16:00N 37°57' W 008°52'0 0.0
2017-Dec-11 15:30N 37°57' W 008°52'0 0.0
2017-Dec-11 15:00N 37°57' W 008°52'0 0.0
2017-Dec-11 14:30N 37°57' W 008°52'0 0.0
2017-Dec-11 14:00N 37°57' W 008°52'0 0.0
2017-Dec-11 13:30N 37°57' W 008°52'0 0.0
2017-Dec-11 13:00N 37°57' W 008°52'0 0.0
2017-Dec-11 12:30N 37°57' W 008°52'0 0.0
2017-Dec-11 12:00N 37°57' W 008°52'0 0.0
2017-Dec-11 11:30N 37°57' W 008°52'0 0.0
2017-Dec-11 11:00N 37°57' W 008°52'0 0.0
2017-Dec-11 10:30N 37°57' W 008°52'0 0.0
2017-Dec-11 10:00N 37°57' W 008°52'0 0.0
2017-Dec-11 09:30N 37°57' W 008°52'0 0.0
2017-Dec-11 09:00N 37°57' W 008°52'0 0.1
2017-Dec-11 08:30N 37°57' W 008°52'0 0.2
2017-Dec-11 08:00N 37°57' W 008°52'0 0.0
2017-Dec-11 07:30N 37°57' W 008°52'0 0.0
2017-Dec-11 07:00N 37°57' W 008°52'0 0.0
2017-Dec-11 06:30N 37°57' W 008°52'0 0.0
2017-Dec-11 06:00N 37°57' W 008°52'0 0.0
2017-Dec-11 05:30N 37°57' W 008°52'0 0.0
2017-Dec-11 05:00N 37°57' W 008°52'0 0.0
2017-Dec-11 04:30N 37°57' W 008°52'0 0.0
2017-Dec-11 04:00N 37°57' W 008°52'0 0.0
2017-Dec-11 03:30N 37°57' W 008°52'0 0.0
2017-Dec-11 03:00N 37°57' W 008°52'0 0.0
2017-Dec-11 02:30N 37°57' W 008°52'0 0.0
2017-Dec-11 02:00N 37°57' W 008°52'0 0.0
2017-Dec-11 01:30N 37°57' W 008°52'0 0.0
2017-Dec-11 01:00N 37°57' W 008°52'0 0.0
2017-Dec-11 00:30N 37°57' W 008°52'0 0.0
2017-Dec-11 00:00N 37°57' W 008°52'0 0.0
2017-Dec-10 23:30N 37°57' W 008°52'0 0.0
2017-Dec-10 23:00N 37°57' W 008°52'0 0.0
2017-Dec-10 22:30N 37°57' W 008°52'0 0.0
2017-Dec-10 22:00N 37°57' W 008°52'0 0.0
2017-Dec-10 21:30N 37°57' W 008°52'0 0.1
2017-Dec-10 21:00N 37°57' W 008°52'2 4.9
2017-Dec-10 20:30N 37°57' W 008°55'3 7.0
2017-Dec-10 20:00N 37°60' W 008°58'4 7.0
2017-Dec-10 19:30N 38°02' W 009°00'4 7.0
2017-Dec-10 19:00N 38°05' W 009°03'4 7.2
2017-Dec-10 18:30N 38°08' W 009°06'4 7.0
2017-Dec-10 18:00N 38°11' W 009°09'1 1.3
2017-Dec-10 17:30N 38°11' W 009°10'1 1.1
2017-Dec-10 17:00N 38°11' W 009°10'0 0.4
2017-Dec-10 16:30N 38°11' W 009°10'0 0.4
2017-Dec-10 16:00N 38°11' W 009°10'0 0.9
2017-Dec-10 15:30N 38°11' W 009°10'1 1.2
2017-Dec-10 15:00N 38°10' W 009°10'0 0.9
2017-Dec-10 14:30N 38°10' W 009°10'2 3.1
2017-Dec-10 14:00N 38°10' W 009°08'3 7.0
2017-Dec-10 13:30N 38°09' W 009°03'3 6.9
2017-Dec-10 13:00N 38°08' W 008°59'1 1.5
2017-Dec-10 12:30N 38°08' W 009°00'4 7.4
2017-Dec-10 12:00N 38°05' W 008°58'4 7.4
2017-Dec-10 11:30N 38°01' W 008°57'4 7.5
2017-Dec-10 11:00N 37°57' W 008°56'4 7.1
2017-Dec-10 10:30N 37°54' W 008°56'1 1.8
2017-Dec-10 10:00N 37°53' W 008°56'1 1.3
2017-Dec-10 09:30N 37°53' W 008°57'1 1.2
2017-Dec-10 09:00N 37°52' W 008°57'1 2.3
2017-Dec-10 08:30N 37°52' W 008°59'0 0.7
2017-Dec-10 08:00N 37°52' W 008°59'1 1.5
2017-Dec-10 07:30N 37°53' W 008°58'1 1.5
2017-Dec-10 07:00N 37°53' W 008°57'1 1.2
2017-Dec-10 06:30N 37°54' W 008°57'2 4.8
2017-Dec-10 06:00N 37°55' W 009°00'0 0.5
2017-Dec-10 05:30N 37°55' W 009°00'0 0.4
2017-Dec-10 05:01N 37°55' W 009°01'0 0.4
2017-Dec-10 04:30N 37°55' W 009°01'0 0.4
2017-Dec-10 04:00N 37°55' W 009°01'0 0.3
2017-Dec-10 03:31N 37°55' W 009°01'0 0.3
2017-Dec-10 03:01N 37°55' W 009°02'0 0.3
2017-Dec-10 02:31N 37°55' W 009°02'0 0.6
2017-Dec-10 02:01N 37°55' W 009°02'4 7.7
2017-Dec-10 01:31N 37°59' W 009°03'4 7.9
2017-Dec-10 01:01N 38°02' W 009°03'4 8.0
2017-Dec-10 00:31N 38°06' W 009°04'3 6.2
2017-Dec-10 00:01N 38°09' W 009°05'2 3.6
2017-Dec-09 23:31N 38°10' W 009°07'2 4.8
2017-Dec-09 23:00N 38°11' W 009°10'1 1.4
2017-Dec-09 22:31N 38°10' W 009°09'1 1.2
2017-Dec-09 22:01N 38°10' W 009°10'0 0.9
2017-Dec-09 21:30N 38°10' W 009°10'1 1.2
2017-Dec-09 21:01N 38°11' W 009°10'0 0.7
2017-Dec-09 20:31N 38°11' W 009°10'0 0.6
2017-Dec-09 20:00N 38°11' W 009°10'0 0.6
2017-Dec-09 19:31N 38°11' W 009°10'0 0.7
2017-Dec-09 19:00N 38°11' W 009°10'0 0.5
2017-Dec-09 18:31N 38°10' W 009°09'1 2.1
2017-Dec-09 18:01N 38°10' W 009°09'4 7.0
2017-Dec-09 17:30N 38°07' W 009°06'3 6.5
2017-Dec-09 17:01N 38°04' W 009°04'2 3.8
2017-Dec-09 16:31N 38°02' W 009°03'0 0.4
2017-Dec-09 16:01N 38°02' W 009°03'0 0.7
2017-Dec-09 15:31N 38°03' W 009°03'0 0.5
2017-Dec-09 15:00N 38°03' W 009°03'0 0.5
2017-Dec-09 14:30N 38°03' W 009°03'0 0.7
2017-Dec-09 14:01N 38°03' W 009°03'0 0.6
2017-Dec-09 13:31N 38°04' W 009°03'0 0.8
2017-Dec-09 13:01N 38°04' W 009°03'0 0.9
2017-Dec-09 12:31N 38°04' W 009°03'0 0.7
2017-Dec-09 12:01N 38°04' W 009°03'3 5.8
2017-Dec-09 11:31N 38°07' W 009°04'1 1.7
2017-Dec-09 11:01N 38°06' W 009°04'1 2.0
2017-Dec-09 10:31N 38°06' W 009°03'1 1.3
2017-Dec-09 10:01N 38°05' W 009°03'0 0.9
2017-Dec-09 09:31N 38°05' W 009°03'3 5.8
2017-Dec-09 09:01N 38°08' W 009°03'0 0.9
2017-Dec-09 08:31N 38°08' W 009°03'1 2.1
2017-Dec-09 08:00N 38°07' W 009°03'1 1.5
2017-Dec-09 07:31N 38°06' W 009°02'1 1.3
2017-Dec-09 07:01N 38°05' W 009°03'1 1.9
2017-Dec-09 06:31N 38°04' W 009°02'2 4.9
2017-Dec-09 06:01N 38°04' W 008°59'0 0.6
2017-Dec-09 05:31N 38°04' W 008°60'0 0.6
2017-Dec-09 05:01N 38°04' W 009°00'0 0.6
2017-Dec-09 04:31N 38°04' W 009°00'0 0.7
2017-Dec-09 04:01N 38°04' W 009°01'0 0.7
2017-Dec-09 03:31N 38°05' W 009°01'0 0.7
2017-Dec-09 03:01N 38°05' W 009°01'0 0.6
2017-Dec-09 02:31N 38°05' W 009°02'0 0.5
2017-Dec-09 02:00N 38°05' W 009°02'1 1.4
2017-Dec-09 01:31N 38°06' W 009°03'2 4.2
2017-Dec-09 01:00N 38°07' W 009°05'2 4.1
2017-Dec-09 00:31N 38°09' W 009°06'2 3.7
2017-Dec-09 00:01N 38°10' W 009°08'2 4.0
2017-Dec-08 23:30N 38°11' W 009°10'1 2.0
2017-Dec-08 23:01N 38°10' W 009°10'0 0.3
2017-Dec-08 22:31N 38°10' W 009°10'0 0.8
2017-Dec-08 22:01N 38°10' W 009°10'1 1.0
2017-Dec-08 21:31N 38°11' W 009°10'0 0.8
2017-Dec-08 21:01N 38°11' W 009°10'0 0.3
2017-Dec-08 20:31N 38°11' W 009°10'0 0.6
2017-Dec-08 20:01N 38°11' W 009°10'0 0.5
2017-Dec-08 19:31N 38°11' W 009°10'0 0.8
2017-Dec-08 19:01N 38°10' W 009°10'0 0.4
2017-Dec-08 18:31N 38°10' W 009°10'0 0.5
2017-Dec-08 18:01N 38°10' W 009°10'3 5.9
2017-Dec-08 17:31N 38°10' W 009°06'2 4.9
2017-Dec-08 17:01N 38°07' W 009°04'0 0.8
2017-Dec-08 16:31N 38°08' W 009°05'1 1.5
2017-Dec-08 16:01N 38°07' W 009°04'1 2.9
2017-Dec-08 15:30N 38°08' W 009°05'1 1.5
2017-Dec-08 15:01N 38°09' W 009°05'0 0.3
2017-Dec-08 14:31N 38°09' W 009°05'3 5.6
2017-Dec-08 14:01N 38°12' W 009°05'4 7.4
2017-Dec-08 13:31N 38°09' W 009°02'1 1.5
2017-Dec-08 13:01N 38°08' W 009°02'1 1.7
2017-Dec-08 12:30N 38°07' W 009°03'1 1.9
2017-Dec-08 12:01N 38°07' W 009°03'3 5.0
2017-Dec-08 11:31N 38°09' W 009°05'1 1.0
2017-Dec-08 11:01N 38°08' W 009°05'1 1.3
2017-Dec-08 10:31N 38°08' W 009°04'1 1.4
2017-Dec-08 10:00N 38°07' W 009°04'1 1.5
2017-Dec-08 09:31N 38°06' W 009°03'2 3.6
2017-Dec-08 09:01N 38°08' W 009°04'0 0.4
2017-Dec-08 08:31N 38°08' W 009°04'1 2.1
2017-Dec-08 08:01N 38°07' W 009°03'1 1.9
2017-Dec-08 07:30N 38°06' W 009°03'2 3.2
2017-Dec-08 07:01N 38°05' W 009°02'0 0.2
2017-Dec-08 06:31N 38°05' W 009°02'0 0.2
2017-Dec-08 06:00N 38°05' W 009°02'0 0.2
2017-Dec-08 05:31N 38°05' W 009°02'0 0.3
2017-Dec-08 05:01N 38°05' W 009°02'0 0.2
2017-Dec-08 04:31N 38°05' W 009°02'0 0.2
2017-Dec-08 04:01N 38°05' W 009°02'0 0.2
2017-Dec-08 03:31N 38°05' W 009°02'0 0.2
2017-Dec-08 03:01N 38°06' W 009°02'1 2.5
2017-Dec-08 02:31N 38°06' W 009°03'2 4.9
2017-Dec-08 02:01N 38°08' W 009°06'2 4.8
2017-Dec-08 01:31N 38°09' W 009°08'2 4.3
2017-Dec-08 01:01N 38°11' W 009°10'1 2.3
2017-Dec-08 00:30N 38°10' W 009°09'1 1.1
2017-Dec-08 00:01N 38°10' W 009°10'0 0.1
2017-Dec-07 23:31N 38°10' W 009°10'1 1.0
2017-Dec-07 23:01N 38°10' W 009°10'0 1.0
2017-Dec-07 22:31N 38°11' W 009°10'0 0.3
2017-Dec-07 22:00N 38°11' W 009°10'1 1.1
2017-Dec-07 21:31N 38°10' W 009°10'0 0.3
2017-Dec-07 21:00N 38°11' W 009°10'0 0.8
2017-Dec-07 20:31N 38°11' W 009°10'0 0.4
2017-Dec-07 20:01N 38°11' W 009°10'0 0.6
2017-Dec-07 19:31N 38°11' W 009°10'0 0.3
2017-Dec-07 19:01N 38°11' W 009°10'2 4.4
2017-Dec-07 18:31N 38°09' W 009°08'4 8.2
2017-Dec-07 18:00N 38°05' W 009°05'4 8.0
2017-Dec-07 17:31N 38°02' W 009°02'4 7.8
2017-Dec-07 17:01N 37°59' W 008°59'2 3.9
2017-Dec-07 16:31N 37°58' W 008°57'1 1.5
2017-Dec-07 16:01N 37°57' W 008°57'1 1.8
2017-Dec-07 15:30N 37°56' W 008°57'1 1.4
2017-Dec-07 15:01N 37°56' W 008°56'1 1.5
2017-Dec-07 14:31N 37°55' W 008°56'3 5.4
2017-Dec-07 14:01N 37°56' W 008°53'1 2.1
2017-Dec-07 13:31N 37°57' W 008°52'0 0.0
2017-Dec-07 13:01N 37°57' W 008°52'0 0.0
2017-Dec-07 12:31N 37°57' W 008°52'0 0.0
2017-Dec-07 12:01N 37°57' W 008°52'0 0.0
2017-Dec-07 11:31N 37°57' W 008°52'0 0.1
2017-Dec-07 11:01N 37°57' W 008°52'0 0.0
2017-Dec-07 10:31N 37°57' W 008°52'0 0.0
2017-Dec-07 10:01N 37°57' W 008°52'0 0.0
2017-Dec-07 09:30N 37°57' W 008°52'0 0.0
2017-Dec-07 09:00N 37°57' W 008°52'0 0.0
2017-Dec-07 08:31N 37°57' W 008°52'0 0.2
2017-Dec-07 08:00N 37°57' W 008°52'0 0.0
2017-Dec-07 07:31N 37°57' W 008°52'0 0.0
2017-Dec-07 07:00N 37°57' W 008°52'0 0.0
2017-Dec-07 06:30N 37°57' W 008°52'0 0.0
2017-Dec-07 06:01N 37°57' W 008°52'0 0.0
2017-Dec-07 05:31N 37°57' W 008°52'0 0.0
2017-Dec-07 05:01N 37°57' W 008°52'1 2.2
2017-Dec-07 04:31N 37°56' W 008°53'3 5.3
2017-Dec-07 04:01N 37°56' W 008°56'3 5.8
2017-Dec-07 03:31N 37°58' W 008°58'2 4.0
2017-Dec-07 03:01N 38°00' W 008°59'2 3.6
2017-Dec-07 02:30N 38°02' W 009°00'2 3.5
2017-Dec-07 02:01N 38°03' W 009°02'2 3.9
2017-Dec-07 01:30N 38°04' W 009°03'2 4.0
2017-Dec-07 01:00N 38°06' W 009°05'3 5.4
2017-Dec-07 00:31N 38°08' W 009°07'3 6.7
2017-Dec-07 00:01N 38°11' W 009°09'1 2.5
2017-Dec-06 23:31N 38°10' W 009°10'1 1.1
2017-Dec-06 23:01N 38°10' W 009°10'0 0.1
2017-Dec-06 22:31N 38°10' W 009°10'0 0.9
2017-Dec-06 22:01N 38°11' W 009°11'0 0.6
2017-Dec-06 21:30N 38°11' W 009°11'0 0.6
2017-Dec-06 21:01N 38°11' W 009°11'  

Dump ship's entire track history